TZDO2: Arkansas Rv at SH 344 nr Tulsa, OK

                                SHEF ID:       TZDO2     Arkansas Rv at SH 344 nr Tulsa, OK
STATION TYPE:

STAGE RIV-FLOW BAT-LOAD
ft cfs volt
Ccp-Rev Ccp-Rev Ccp-Rev
(America/Chicago)
05/05 00:00 10.42 6242 12.70
05/05 01:00 10.45 6363 12.67
05/05 02:00 10.44 6323 12.65
05/05 03:00 10.39 6123 12.62
05/05 04:00 10.29 5735 12.60
05/05 05:00 10.03 4800 12.59
05/05 06:00 9.74 3878 12.57
05/05 07:00 9.48 3154 12.57
05/05 08:00 9.24 2567 12.63
05/05 09:00 8.95 1957 12.77
05/05 10:00 8.80 1681 12.70
05/05 11:00 8.97 1995 12.70
05/05 12:00 9.46 3102 12.74
05/05 13:00 9.86 4245 12.83
05/05 14:00 10.13 5147 13.02
05/05 15:00 10.28 5697 13.06
05/05 16:00 10.37 6044 13.09
05/05 17:00 10.37 6044 13.05
05/05 18:00 10.43 6282 13.07
05/05 19:00 10.41 6202 12.88
05/05 20:00 10.40 6162 12.74
05/05 21:00 10.42 6242 12.67
05/05 22:00 10.41 6202 12.63
05/05 23:00 ---- ---- ----
Data processed at Wed 06May2026 04:51 GMT

NOTICE: If you are parsing this page

Please convert to using our Data API. Starting early 2026 we will be migrating to: https://water.usace.army.mil with modern pages rendered in JavaScript. When this migration completes you will no longer be able to scrape this page! CWMSDataAPI (CDA)

Timeseries IDs (TSIDs)

TSIDs used from left to right in the data table
GILC.Stage.Inst.1Hour.0.Ccp-Rev
GILC.Flow.Inst.1Hour.0.Ccp-Rev
GILC.Volt-Battery Load.Inst.1Hour.0.Ccp-Rev

                            

All information presented herein is the property of the government of the United States of America and may be revised or deleted at any time without prior notice. Dissemination of this information without the expressed written consent of the Public Affairs Office, Tulsa District U.S. Army Corps of Engineers is strictly prohibited. These data are gathered electronically and, as presented, have NOT undergone any form of quality control. These data are NOT guaranteed to be valid or correct.